Time;durP1;ratioP1;P1;durP2;ratioP2;P2;SDS_P1;SDS_P2;PMS_P1;PMS_P2;Temp;Humidity;BMP_temperature;BMP_pressure;BME280_temperature;BME280_humidity;BME280_pressure;Samples;Min_cycle;Max_cycle;Signal;HPM_P1;HPM_P2
2023/09/20 00:00:21;;;;;;;5.15;1.90;;;16.10;76.60;;;14.95;100.00;96002.56;6069419;23;20085;-72
2023/09/20 00:02:50;;;;;;;3.60;1.58;;;16.10;76.50;;;14.93;100.00;96007.22;6094801;23;20010;-72
2023/09/20 00:05:17;;;;;;;3.33;1.77;;;16.00;76.60;;;14.92;100.00;96006.41;6070335;23;20375;-72
2023/09/20 00:07:43;;;;;;;2.55;1.60;;;16.00;76.70;;;14.88;100.00;96002.59;6117341;23;20018;-72
2023/09/20 00:10:12;;;;;;;2.60;1.48;;;16.00;76.60;;;14.90;100.00;96002.38;6117893;23;20033;-72
2023/09/20 00:12:39;;;;;;;2.72;1.60;;;16.00;76.70;;;14.88;100.00;95999.13;6047069;23;20049;-72
2023/09/20 00:15:07;;;;;;;3.15;1.40;;;16.00;76.80;;;14.85;100.00;95994.28;6068793;23;20018;-72
2023/09/20 00:17:34;;;;;;;2.15;1.58;;;15.90;76.70;;;14.85;100.00;96004.88;6069995;23;20025;-73
2023/09/20 00:20:35;;;;;;;1.73;1.25;;;15.90;76.60;;;14.82;100.00;96000.00;6067155;23;20452;-72
2023/09/20 00:22:52;;;;;;;2.13;1.35;;;15.80;76.80;;;14.75;100.00;95993.97;6076743;23;20018;-73
2023/09/20 00:25:19;;;;;;;2.35;1.30;;;15.70;76.90;;;14.71;100.00;95998.91;6093587;23;20044;-71
2023/09/20 00:27:47;;;;;;;2.85;1.23;;;15.70;77.00;;;14.69;100.00;95995.63;6119733;23;20006;-73
2023/09/20 00:30:19;;;;;;;2.22;1.30;;;15.70;77.10;;;14.66;100.00;95994.22;6117555;23;20803;-72
2023/09/20 00:32:45;;;;;;;3.00;1.38;;;15.70;77.00;;;14.64;100.00;95998.94;6117037;23;20085;-72
2023/09/20 00:35:14;;;;;;;4.20;1.30;;;15.60;77.10;;;14.64;100.00;95998.94;6093011;23;20069;-71
2023/09/20 00:37:41;;;;;;;2.25;1.38;;;15.70;77.10;;;14.61;100.00;95990.63;6117882;23;20018;-71
2023/09/20 00:40:15;;;;;;;2.92;1.40;;;15.60;77.20;;;14.59;100.00;96000.63;6094165;23;20079;-72
2023/09/20 00:42:42;;;;;;;2.05;1.52;;;15.60;77.40;;;14.58;100.00;95999.00;6049866;23;20695;-72
2023/09/20 00:45:09;;;;;;;1.90;1.30;;;15.60;77.40;;;14.57;100.00;95997.38;6119039;23;20026;-72
2023/09/20 00:47:40;;;;;;;1.95;1.30;;;15.60;77.50;;;14.57;100.00;95992.09;6071336;23;20092;-72
2023/09/20 00:50:11;;;;;;;4.40;1.75;;;15.60;77.50;;;14.54;100.00;95993.31;6118802;23;20050;-71
2023/09/20 00:52:41;;;;;;;;;;;15.60;77.40;;;14.51;100.00;95990.31;6072638;23;20024;-72
2023/09/20 00:55:15;;;;;;;3.77;1.40;;;15.60;77.50;;;14.48;100.00;95991.53;6095154;23;19913;-72
2023/09/20 00:57:46;;;;;;;3.00;1.63;;;15.60;77.60;;;14.47;100.00;95981.97;6096715;23;20024;-72
2023/09/20 01:00:25;;;;;;;2.33;1.58;;;15.60;77.50;;;14.44;100.00;95998.28;6095417;23;20018;-72
2023/09/20 01:02:52;;;;;;;4.20;1.98;;;15.60;77.70;;;14.44;100.00;95992.97;6073289;23;20118;-73
2023/09/20 01:05:27;;;;;;;2.90;1.45;;;15.60;77.70;;;14.43;100.00;95991.38;6046645;23;20484;-72
2023/09/20 01:07:56;;;;;;;1.85;1.35;;;15.60;77.70;;;14.45;100.00;95999.09;6119003;23;20037;-73
2023/09/20 01:10:26;;;;;;;2.88;1.50;;;15.60;77.80;;;14.42;100.00;95995.00;6070500;23;20036;-72
2023/09/20 01:12:58;;;;;;;4.20;1.80;;;15.50;77.80;;;14.40;100.00;95987.28;6118699;23;20073;-72
2023/09/20 01:15:25;;;;;;;4.32;1.40;;;15.60;77.90;;;14.38;100.00;95989.34;6071615;23;20049;-73
2023/09/20 01:17:56;;;;;;;3.13;1.58;;;15.50;77.90;;;14.35;100.00;95992.41;6069937;23;20414;-72
2023/09/20 01:20:24;;;;;;;2.90;1.35;;;15.40;78.10;;;14.33;100.00;95986.53;6070485;23;20018;-72
2023/09/20 01:22:59;;;;;;;2.85;1.40;;;15.40;78.30;;;14.33;100.00;95993.66;6094233;23;20006;-72
2023/09/20 01:25:41;;;;;;;2.65;1.50;;;15.50;78.30;;;14.29;100.00;95995.13;6096492;23;20519;-72
2023/09/20 01:28:08;;;;;;;2.85;1.67;;;15.40;78.60;;;14.28;100.00;95996.16;6096061;23;20060;-71
2023/09/20 01:30:39;;;;;;;2.78;1.98;;;15.40;79.10;;;14.25;100.00;95985.97;6094057;23;20049;-72
2023/09/20 01:33:08;;;;;;;3.10;1.55;;;15.40;78.90;;;14.23;100.00;95991.47;6070041;23;20072;-71
2023/09/20 01:35:35;;;;;;;2.63;1.45;;;15.40;78.80;;;14.23;100.00;95988.81;6095194;23;20021;-73
2023/09/20 01:38:10;;;;;;;2.35;1.65;;;15.40;78.90;;;14.23;100.00;95985.38;6118196;23;20022;-72
2023/09/20 01:40:35;;;;;;;3.35;1.67;;;15.50;79.10;;;14.18;100.00;95988.66;6096693;23;20013;-72
2023/09/20 01:43:08;;;;;;;2.33;1.65;;;15.40;79.40;;;14.18;100.00;95991.31;6118693;23;20458;-72
2023/09/20 01:45:37;;;;;;;3.95;2.03;;;15.30;79.70;;;14.12;100.00;95978.13;6120586;23;20380;-73
2023/09/20 01:48:08;;;;;;;4.32;1.70;;;15.20;80.00;;;14.13;100.00;95985.03;6118172;23;20020;-72
2023/09/20 01:50:34;;;;;;;3.13;1.80;;;15.30;79.90;;;14.12;100.00;95984.25;6094673;23;20359;-72
2023/09/20 01:53:01;;;;;;;3.17;2.05;;;15.20;79.80;;;14.11;100.00;95982.63;6093616;23;20022;-72
2023/09/20 01:55:28;;;;;;;5.25;1.70;;;15.20;80.00;;;14.08;100.00;95975.94;6118463;23;20006;-71
2023/09/20 01:57:55;;;;;;;2.50;1.83;;;15.10;80.00;;;14.06;100.00;95974.53;6118618;23;20005;-73
2023/09/20 02:00:29;;;;;;;3.85;1.95;;;15.10;80.30;;;14.03;100.00;95974.91;6091732;23;20037;-71
2023/09/20 02:02:56;;;;;;;2.55;1.80;;;15.10;80.20;;;14.02;100.00;95968.00;6095335;23;20068;-72
2023/09/20 02:05:25;;;;;;;2.92;1.65;;;15.20;80.20;;;14.01;100.00;95975.13;6093810;23;20022;-72
2023/09/20 02:07:54;;;;;;;7.10;3.72;;;15.20;80.40;;;14.01;100.00;95976.97;6071492;23;20479;-72
2023/09/20 02:10:21;;;;;;;20.30;16.20;;;15.10;80.70;;;14.01;100.00;95971.69;6093280;23;20033;-71
2023/09/20 02:12:47;;;;;;;6.50;4.93;;;15.10;80.70;;;14.01;100.00;95974.31;6047377;23;20020;-71
2023/09/20 02:15:14;;;;;;;4.03;2.28;;;15.20;80.60;;;13.96;100.00;95961.75;6118886;23;20018;-72
2023/09/20 02:17:41;;;;;;;4.82;3.78;;;15.20;80.80;;;14.01;100.00;95967.19;6093855;23;20018;-72
2023/09/20 02:20:11;;;;;;;9.95;8.38;;;15.30;80.80;;;14.01;100.00;95967.19;6116980;23;20013;-72
2023/09/20 02:22:40;;;;;;;7.10;6.10;;;15.10;80.70;;;14.02;100.00;95968.81;6094391;23;20025;-73
2023/09/20 02:25:11;;;;;;;3.75;2.38;;;15.20;80.60;;;14.00;100.00;95976.16;6046218;23;20028;-72
2023/09/20 02:27:43;;;;;;;3.10;1.80;;;15.10;80.40;;;13.99;100.00;95971.91;6094539;23;20025;-72
2023/09/20 02:30:15;;;;;;;2.28;1.65;;;15.10;80.30;;;13.92;100.00;95968.50;6118663;23;20076;-72
2023/09/20 02:32:44;;;;;;;2.03;1.50;;;15.10;80.70;;;13.89;100.00;95963.63;6117680;23;20468;-71
2023/09/20 02:35:10;;;;;;;3.03;1.63;;;15.00;80.90;;;13.91;100.00;95972.16;6093333;23;20025;-71
2023/09/20 02:37:36;;;;;;;3.28;1.88;;;15.00;80.80;;;13.89;100.00;95974.22;6093574;23;20018;-73
2023/09/20 02:40:12;;;;;;;3.88;1.75;;;15.10;80.90;;;13.88;100.00;95969.94;6094161;23;20393;-71
2023/09/20 02:42:51;;;;;;;2.75;1.85;;;15.10;80.90;;;13.90;100.00;95975.81;6095788;23;20066;-72
2023/09/20 02:45:17;;;;;;;4.00;3.13;;;15.10;80.90;;;13.89;100.00;95973.41;6117518;23;20022;-73
2023/09/20 02:47:43;;;;;;;14.90;11.25;;;15.10;81.10;;;13.87;100.00;95965.69;6118160;23;20490;-72
2023/09/20 02:50:13;;;;;;;31.77;26.00;;;15.10;80.90;;;13.87;100.00;95970.97;6117374;23;20049;-73
2023/09/20 02:52:39;;;;;;;13.05;10.45;;;15.10;80.90;;;13.85;100.00;95962.44;6069814;23;20022;-69
2023/09/20 02:55:09;;;;;;;9.20;6.43;;;15.10;80.60;;;13.85;100.00;95957.16;6118135;23;20093;-71
2023/09/20 02:57:37;;;;;;;33.90;27.20;;;15.10;80.70;;;13.85;100.00;95962.44;6118074;23;20021;-71
2023/09/20 03:00:15;;;;;;;15.57;13.27;;;15.10;80.50;;;13.83;100.00;95945.19;6119056;23;20018;-71
2023/09/20 03:02:49;;;;;;;7.88;6.35;;;15.10;80.40;;;13.79;100.00;95948.22;6093948;23;20598;-71
2023/09/20 03:05:31;;;;;;;3.45;2.63;;;15.10;80.50;;;13.82;100.00;95959.41;6116803;23;20057;-72
2023/09/20 03:07:57;;;;;;;23.02;17.67;;;15.00;80.50;;;13.78;100.00;95951.06;6119955;23;20018;-71
2023/09/20 03:10:23;;;;;;;40.00;29.85;;;15.00;80.50;;;13.77;100.00;95944.16;6117772;23;20486;-71
2023/09/20 03:12:54;;;;;;;16.73;12.05;;;15.00;80.60;;;13.75;100.00;95946.22;6094037;23;20002;-71
2023/09/20 03:15:22;;;;;;;8.52;4.03;;;15.00;80.50;;;13.73;100.00;95948.25;6118535;23;20041;-71
2023/09/20 03:17:49;;;;;;;6.50;2.28;;;15.00;80.50;;;13.69;100.00;95945.22;6093759;23;20006;-71
2023/09/20 03:20:22;;;;;;;3.60;2.25;;;14.90;80.40;;;13.68;100.00;95956.03;6091177;23;20022;-71
2023/09/20 03:22:52;;;;;;;12.60;9.73;;;14.90;80.20;;;13.66;100.00;95950.94;6072550;23;20042;-73
2023/09/20 03:25:19;;;;;;;5.35;3.88;;;14.90;80.10;;;13.67;100.00;95943.84;6069883;23;20006;-71
2023/09/20 03:27:46;;;;;;;4.47;2.65;;;14.80;80.00;;;13.64;100.00;95944.25;6118400;23;20463;-72
2023/09/20 03:30:13;;;;;;;4.78;2.25;;;14.90;80.00;;;13.61;100.00;95944.69;6117424;23;20045;-72
2023/09/20 03:32:42;;;;;;;3.08;1.80;;;14.90;80.00;;;13.60;100.00;95945.72;6072629;23;20479;-73
2023/09/20 03:35:09;;;;;;;2.47;1.75;;;14.80;80.20;;;13.59;100.00;95952.00;6121038;23;20069;-73
2023/09/20 03:37:38;;;;;;;4.32;1.50;;;14.80;80.30;;;13.57;100.00;95946.09;6145357;23;20004;-72
2023/09/20 03:40:10;;;;;;;1.98;1.30;;;14.80;80.70;;;13.57;100.00;95940.81;6145684;23;20009;-72
2023/09/20 03:42:38;;;;;;;2.65;1.73;;;14.80;80.70;;;13.55;100.00;95940.22;6134022;23;20029;-73
2023/09/20 03:45:06;;;;;;;2.17;1.80;;;14.80;80.60;;;13.55;100.00;95940.22;6118425;23;20014;-73
2023/09/20 03:47:33;;;;;;;3.47;1.55;;;14.70;80.50;;;13.54;100.00;95949.16;6121985;23;20014;-73
2023/09/20 03:49:58;;;;;;;2.67;1.77;;;14.80;80.60;;;13.52;100.00;95940.66;6099060;23;20010;-73
2023/09/20 03:52:24;;;;;;;3.45;1.60;;;14.80;80.70;;;13.51;100.00;95947.75;6120658;23;20606;-72
2023/09/20 03:54:51;;;;;;;2.55;1.42;;;14.80;81.00;;;13.51;100.00;95950.41;6120698;23;20073;-72
2023/09/20 03:57:18;;;;;;;2.97;1.50;;;14.80;81.30;;;13.52;100.00;95946.75;6118779;23;20018;-72
2023/09/20 03:59:44;;;;;;;15.63;13.95;;;14.70;81.80;;;13.52;100.00;95945.94;6120161;23;20022;-71
2023/09/20 04:02:14;;;;;;;27.42;21.75;;;14.80;81.90;;;13.54;100.00;95955.25;6119482;23;20010;-72
2023/09/20 04:04:40;;;;;;;11.98;9.70;;;14.80;82.00;;;13.54;100.00;95943.88;6120044;23;20522;-71
2023/09/20 04:07:07;;;;;;;8.45;7.50;;;14.90;81.70;;;13.53;100.00;95940.44;6120099;23;20036;-71
2023/09/20 04:09:35;;;;;;;2.75;1.80;;;14.80;81.60;;;13.56;100.00;95955.06;6072657;23;20093;-72
2023/09/20 04:12:01;;;;;;;3.50;1.60;;;14.80;81.30;;;13.53;100.00;95947.56;6120414;23;20014;-71
2023/09/20 04:14:27;;;;;;;1.98;1.20;;;14.80;81.20;;;13.51;100.00;95945.13;6121451;23;20020;-71
2023/09/20 04:16:53;;;;;;;3.35;1.27;;;14.80;81.20;;;13.49;100.00;95947.97;6124103;23;20042;-72
2023/09/20 04:19:20;;;;;;;2.83;1.20;;;14.80;81.20;;;13.48;100.00;95938.44;6122299;23;20025;-73
2023/09/20 04:21:48;;;;;;;1.75;1.23;;;14.80;81.30;;;13.46;100.00;95948.41;6124628;23;20035;-72
2023/09/20 04:24:15;;;;;;;1.80;1.20;;;14.70;81.20;;;13.45;100.00;95941.50;6121913;23;20359;-74
2023/09/20 04:26:41;;;;;;;1.83;1.10;;;14.70;81.00;;;13.42;100.00;95934.00;6122525;23;20092;-71
2023/09/20 04:29:10;;;;;;;2.15;1.30;;;14.70;80.80;;;13.40;100.00;95938.69;6122291;23;20465;-72
2023/09/20 04:31:36;;;;;;;1.80;1.52;;;14.60;80.80;;;13.37;100.00;95939.09;6123683;23;20024;-72
2023/09/20 04:34:02;;;;;;;3.28;1.75;;;14.60;80.80;;;13.35;100.00;95930.59;6124418;23;20041;-73
2023/09/20 04:36:27;;;;;;;50.17;39.25;;;14.60;80.80;;;13.32;100.00;95930.97;6122051;23;20527;-71
2023/09/20 04:38:55;;;;;;;62.75;46.80;;;14.60;81.10;;;13.29;100.00;95936.69;6123959;23;20010;-72
2023/09/20 04:41:21;;;;;;;20.25;15.38;;;14.60;81.20;;;13.25;100.00;95930.19;6121951;23;20014;-73
2023/09/20 04:43:47;;;;;;;8.32;6.10;;;14.60;81.00;;;13.27;100.00;95933.44;6122128;23;20010;-73
2023/09/20 04:46:13;;;;;;;11.85;8.95;;;14.60;80.80;;;13.26;100.00;95931.81;6124252;23;20065;-72
2023/09/20 04:48:41;;;;;;;11.40;9.30;;;14.60;80.80;;;13.23;100.00;95934.88;6123163;23;20025;-71
2023/09/20 04:51:08;;;;;;;5.13;3.42;;;14.60;80.80;;;13.22;100.00;95932.47;6123360;23;20077;-70
2023/09/20 04:53:34;;;;;;;3.58;1.95;;;14.50;80.80;;;13.23;100.00;95937.53;6097705;23;20020;-72
2023/09/20 04:56:00;;;;;;;2.88;1.80;;;14.60;80.90;;;13.21;100.00;95938.75;6122011;23;20017;-73
2023/09/20 04:58:26;;;;;;;1.90;1.35;;;14.60;81.10;;;13.19;100.00;95936.34;6097677;23;20356;-73
2023/09/20 05:00:53;;;;;;;2.40;1.60;;;14.50;81.20;;;13.15;100.00;95935.91;6098390;23;20012;-71
2023/09/20 05:03:21;;;;;;;1.52;1.17;;;14.50;81.20;;;13.18;100.00;95935.53;6097347;23;20403;-73
2023/09/20 05:05:50;;;;;;;1.90;1.50;;;14.50;81.00;;;13.17;100.00;95941.81;6123586;23;20021;-73
2023/09/20 05:08:16;;;;;;;3.85;1.30;;;14.50;80.90;;;13.17;100.00;95943.63;6123815;23;20022;-71
2023/09/20 05:10:45;;;;;;;2.67;1.60;;;14.50;81.10;;;13.15;100.00;95941.19;6073976;23;20018;-72
2023/09/20 05:13:11;;;;;;;10.63;9.13;;;14.50;81.20;;;13.16;100.00;95939.38;6122371;23;20466;-73
2023/09/20 05:15:39;;;;;;;9.60;8.55;;;14.60;81.50;;;13.15;100.00;95941.19;6073675;23;20232;-72
2023/09/20 05:18:06;;;;;;;31.20;23.38;;;14.60;81.50;;;13.15;100.00;95937.75;6122403;23;20018;-73
2023/09/20 05:20:32;;;;;;;33.35;28.33;;;14.60;81.80;;;13.17;100.00;95939.19;6073805;23;20014;-73
2023/09/20 05:22:59;;;;;;;46.63;40.05;;;14.60;81.90;;;13.18;100.00;95940.00;6097745;23;20010;-73
2023/09/20 05:25:25;;;;;;;12.52;8.98;;;14.60;81.90;;;13.21;100.00;95942.22;6073446;23;20145;-73
2023/09/20 05:27:54;;;;;;;5.03;3.40;;;14.60;82.00;;;13.22;100.00;95941.19;6122860;23;20009;-73
2023/09/20 05:30:21;;;;;;;3.28;2.08;;;14.60;81.90;;;13.24;100.00;95944.44;6121943;23;20061;-73
2023/09/20 05:32:51;;;;;;;6.40;4.07;;;14.70;81.80;;;13.27;100.00;95943.19;6121773;23;20018;-71
2023/09/20 05:35:17;;;;;;;6.25;3.35;;;14.70;81.60;;;13.27;100.00;95946.66;6123421;23;20507;-71
2023/09/20 05:37:43;;;;;;;15.55;8.18;;;14.60;81.50;;;13.29;100.00;95949.88;6123299;23;20083;-70
2023/09/20 05:40:17;;;;;;;13.02;8.20;;;14.70;81.50;;;13.31;100.00;95950.50;6124503;23;20013;-73
2023/09/20 05:42:46;;;;;;;7.32;5.97;;;14.70;81.50;;;13.34;100.00;95955.34;6123233;23;20499;-72
2023/09/20 05:45:13;;;;;;;12.50;9.05;;;14.80;81.30;;;13.36;100.00;95953.34;6123844;23;20020;-72
2023/09/20 05:47:42;;;;;;;5.22;3.25;;;14.80;81.40;;;13.38;100.00;95951.28;6124499;23;20105;-71
2023/09/20 05:50:12;;;;;;;4.75;2.53;;;14.80;81.70;;;13.40;100.00;95959.81;6104771;23;20028;-71
2023/09/20 05:52:40;;;;;;;4.57;2.60;;;14.80;81.80;;;13.41;100.00;95952.69;6129118;23;20022;-71
2023/09/20 05:55:10;;;;;;;11.75;9.27;;;14.80;81.70;;;13.43;100.00;95956.75;6131184;23;20021;-72
2023/09/20 05:57:38;;;;;;;10.73;6.20;;;14.90;81.80;;;13.45;100.00;95961.81;6105561;23;20018;-73
2023/09/20 06:00:18;;;;;;;7.95;5.47;;;15.00;81.90;;;13.48;100.00;95956.13;6125544;23;20014;-72
2023/09/20 06:02:47;;;;;;;6.45;3.15;;;14.90;81.90;;;13.49;100.00;95961.19;6125236;23;20512;-72
2023/09/20 06:05:14;;;;;;;4.25;3.22;;;14.90;81.90;;;13.49;100.00;95958.53;6123743;23;20024;-72
2023/09/20 06:07:40;;;;;;;3.30;2.40;;;14.90;82.20;;;13.52;100.00;95962.59;6052023;23;20090;-73
2023/09/20 06:10:09;;;;;;;3.65;2.28;;;15.00;82.40;;;13.57;100.00;95967.25;6125311;23;20020;-72
2023/09/20 06:12:35;;;;;;;3.75;2.38;;;15.10;82.40;;;13.60;100.00;95964.22;6123574;23;20024;-71
2023/09/20 06:15:02;;;;;;;2.47;1.90;;;15.10;82.50;;;13.65;100.00;95953.81;6121471;23;20093;-73
2023/09/20 06:17:29;;;;;;;1.90;1.42;;;15.20;82.50;;;13.70;100.00;95946.03;6073776;23;20467;-73
2023/09/20 06:19:57;;;;;;;2.20;1.60;;;15.20;82.70;;;13.77;100.00;95954.75;6073400;23;20014;-71
2023/09/20 06:22:23;;;;;;;6.53;1.98;;;15.40;82.50;;;13.84;100.00;95950.25;6097232;23;20025;-72
2023/09/20 06:24:49;;;;;;;3.67;1.67;;;15.50;82.50;;;13.91;100.00;95951.00;6073451;23;20345;-71
2023/09/20 06:27:15;;;;;;;4.47;1.60;;;15.50;82.50;;;13.97;100.00;95955.44;6121559;23;20094;-72
2023/09/20 06:29:41;;;;;;;2.30;1.60;;;15.60;82.20;;;14.05;100.00;95952.56;6120886;23;20480;-70
2023/09/20 06:32:08;;;;;;;26.20;23.02;;;15.70;82.10;;;14.15;100.00;95952.06;6122482;23;20460;-70
2023/09/20 06:34:33;;;;;;;24.13;21.45;;;15.90;81.80;;;14.23;100.00;95950.97;6122621;23;20061;-71
2023/09/20 06:36:59;;;;;;;30.42;25.10;;;15.90;81.70;;;14.33;100.00;95948.69;6123069;23;20010;-73
2023/09/20 06:39:25;;;;;;;10.40;7.75;;;16.00;81.40;;;14.43;100.00;95949.03;6122405;23;20069;-71
2023/09/20 06:41:51;;;;;;;3.17;2.30;;;16.10;81.20;;;14.52;100.00;95942.44;6122790;23;20528;-71
2023/09/20 06:44:17;;;;;;;2.47;1.67;;;16.30;80.80;;;14.63;100.00;95941.72;6120875;23;20013;-71
2023/09/20 06:46:43;;;;;;;2.53;1.40;;;16.40;80.30;;;14.74;100.00;95942.03;6122213;23;20014;-72
2023/09/20 06:49:09;;;;;;;3.85;1.30;;;16.60;80.00;;;14.86;100.00;95938.44;6097192;23;20002;-71
2023/09/20 06:51:35;;;;;;;2.47;1.38;;;16.70;79.70;;;14.96;100.00;95945.91;6122287;23;20022;-71
2023/09/20 06:54:01;;;;;;;2.10;1.52;;;16.90;79.50;;;15.09;100.00;95944.94;6048615;23;20352;-72
2023/09/20 06:56:26;;;;;;;2.90;1.60;;;17.00;79.20;;;15.23;100.00;95944.56;6096484;23;20018;-72
2023/09/20 06:58:55;;;;;;;1.90;1.20;;;17.20;78.60;;;15.39;100.00;95942.31;6096557;23;20463;-71
2023/09/20 07:01:25;;;;;;;2.17;1.40;;;17.60;77.80;;;15.55;100.00;95941.72;6096345;23;20061;-71
2023/09/20 07:03:52;;;;;;;2.78;1.33;;;18.00;76.00;;;15.73;100.00;95944.38;6121217;23;20076;-72
2023/09/20 07:06:18;;;;;;;3.08;1.55;;;18.40;75.10;;;15.92;100.00;95937.19;6120908;23;20036;-70
2023/09/20 07:08:45;;;;;;;3.10;1.42;;;18.60;74.20;;;16.13;100.00;95931.38;6096557;23;20047;-72
2023/09/20 07:11:12;;;;;;;3.72;1.45;;;18.90;73.10;;;16.38;100.00;95939.13;6121142;23;20077;-73
2023/09/20 07:13:37;;;;;;;1.75;1.10;;;19.40;71.90;;;16.60;100.00;95923.44;6121985;23;20010;-70
2023/09/20 07:16:05;;;;;;;5.45;1.52;;;19.80;70.00;;;16.91;100.00;95924.97;6121471;23;20507;-73
2023/09/20 07:18:34;;;;;;;2.10;1.30;;;20.20;68.80;;;17.19;100.00;95920.75;6122227;23;20037;-73
2023/09/20 07:20:59;;;;;;;3.63;1.45;;;20.50;68.00;;;17.47;100.00;95922.66;6120878;23;20014;-73
2023/09/20 07:23:25;;;;;;;2.63;1.38;;;21.00;65.90;;;17.74;100.00;95915.75;6121899;23;20150;-72
2023/09/20 07:25:51;;;;;;;3.40;1.40;;;21.60;63.70;;;18.02;100.00;95920.25;6120785;23;20014;-73
2023/09/20 07:28:17;;;;;;;2.92;1.30;;;22.20;62.50;;;18.31;100.00;95908.50;6120852;23;20059;-71
2023/09/20 07:30:45;;;;;;;2.85;1.45;;;22.90;60.00;;;18.64;100.00;95909.56;6120676;23;20006;-73
2023/09/20 07:33:12;;;;;;;5.93;1.40;;;23.30;59.00;;;18.96;100.00;95904.41;6073414;23;20025;-71
2023/09/20 07:35:48;;;;;;;4.57;1.42;;;23.80;57.60;;;19.31;100.00;95906.75;6096199;23;20489;-70
2023/09/20 07:38:19;;;;;;;3.72;1.88;;;24.30;56.60;;;19.64;100.00;95902.34;6121035;23;20355;-73
2023/09/20 07:40:49;;;;;;;2.40;1.70;;;24.70;55.40;;;19.95;100.00;95890.94;6120584;23;20014;-71
2023/09/20 07:43:17;;;;;;;4.32;1.60;;;25.10;53.90;;;20.29;99.04;95896.00;6122120;23;20013;-72
2023/09/20 07:45:43;;;;;;;2.85;1.55;;;25.50;53.00;;;20.59;96.19;95893.59;6121463;23;20007;-72
2023/09/20 07:48:12;;;;;;;2.05;1.25;;;25.90;51.10;;;20.88;92.74;95898.59;6122214;23;20018;-72
2023/09/20 07:50:41;;;;;;;2.80;1.20;;;26.30;49.80;;;21.16;91.93;95882.16;6123833;23;20021;-71
2023/09/20 07:53:11;;;;;;;2.42;1.48;;;26.70;49.90;;;21.45;87.74;95876.41;6124046;23;20105;-72
2023/09/20 07:55:44;;;;;;;2.65;1.35;;;27.10;48.70;;;21.79;84.17;95872.22;6074606;23;20018;-71
2023/09/20 07:58:13;;;;;;;1.80;1.10;;;27.60;46.70;;;22.09;84.25;95878.72;6052749;23;20009;-73
2023/09/20 08:00:45;;;;;;;2.45;1.20;;;28.10;46.10;;;22.40;80.50;95868.81;6097998;23;20040;-71
2023/09/20 08:03:12;;;;;;;1.70;1.10;;;28.50;45.40;;;22.69;82.38;95885.16;6123962;23;20014;-73
2023/09/20 08:05:38;;;;;;;3.00;1.05;;;28.80;44.60;;;23.01;80.78;95872.22;6123861;23;20010;-73
2023/09/20 08:08:08;;;;;;;3.33;1.10;;;29.20;43.50;;;23.30;74.91;95855.47;6122680;23;20015;-71
2023/09/20 08:10:38;;;;;;;2.70;1.17;;;29.50;42.90;;;23.59;70.93;95843.03;6098667;23;20376;-71
2023/09/20 08:13:04;;;;;;;1.95;0.95;;;29.80;40.90;;;23.88;72.71;95845.00;6075016;23;20002;-71
2023/09/20 08:15:36;;;;;;;2.00;0.95;;;30.10;39.60;;;24.15;71.69;95848.00;6074217;23;20045;-72
2023/09/20 08:20:47;;;;;;;2.83;1.33;;;30.60;38.50;;;24.70;67.60;95827.13;6123862;23;20041;-72
2023/09/20 09:01:37;;;;;;;2.75;1.50;;;32.50;34.90;;;27.85;53.49;95778.00;6081046;23;20049;-72
2023/09/20 09:04:09;;;;;;;2.55;1.30;;;32.70;35.00;;;28.01;50.10;95752.97;6123009;23;20014;-73
2023/09/20 09:06:35;;;;;;;2.53;1.20;;;32.90;34.90;;;28.23;51.27;95751.34;6098379;23;20010;-71
2023/09/20 09:09:02;;;;;;;1.58;1.00;;;32.90;33.80;;;28.30;49.74;95749.84;6122379;23;20041;-73
2023/09/20 09:11:28;;;;;;;4.43;1.40;;;32.70;33.90;;;28.40;49.56;95748.78;6122820;23;20486;-72
2023/09/20 09:13:58;;;;;;;2.28;1.02;;;32.80;34.10;;;28.55;48.78;95748.38;6123796;23;20413;-71
2023/09/20 09:16:26;;;;;;;1.75;0.75;;;32.80;34.10;;;28.64;48.84;95741.06;6098218;23;20455;-73
2023/09/20 09:18:54;;;;;;;2.15;1.00;;;32.90;34.30;;;28.91;48.04;95725.75;6098394;23;20013;-73
2023/09/20 09:21:20;;;;;;;2.17;1.00;;;33.10;34.70;;;29.17;48.12;95745.53;6073705;23;20463;-73
2023/09/20 09:23:46;;;;;;;2.05;1.00;;;33.20;35.10;;;29.37;48.12;95737.94;6097134;23;20054;-73
2023/09/20 09:26:13;;;;;;;9.85;8.35;;;33.50;34.50;;;29.61;47.28;95735.56;6049844;23;20026;-73
2023/09/20 09:28:41;;;;;;;5.75;4.50;;;33.50;33.90;;;29.83;45.70;95723.75;6098427;23;20049;-71
2023/09/20 09:31:08;;;;;;;4.78;1.23;;;33.90;34.10;;;30.08;46.59;95733.81;6122965;23;20383;-73
2023/09/20 09:33:36;;;;;;;1.85;0.90;;;34.10;33.90;;;30.35;44.88;95721.00;6122332;23;20021;-72
2023/09/20 09:36:06;;;;;;;3.47;0.88;;;34.30;33.20;;;30.48;43.71;95709.13;6121390;23;20156;-74
2023/09/20 09:38:34;;;;;;;3.60;1.00;;;34.40;33.30;;;30.57;45.36;95720.75;6097474;23;20076;-73
2023/09/20 09:41:03;;;;;;;1.85;1.10;;;34.60;33.20;;;30.79;43.84;95708.88;6074123;23;20380;-74
2023/09/20 09:43:29;;;;;;;2.57;0.87;;;35.00;32.10;;;31.03;43.25;95705.53;6121945;23;20036;-73
2023/09/20 09:46:09;;;;;;;4.13;0.98;;;35.50;31.60;;;31.42;41.20;95685.28;6097731;23;20577;-73
2023/09/20 09:48:38;;;;;;;1.85;0.80;;;36.20;31.50;;;31.71;42.42;95684.41;6076524;23;20510;-73
2023/09/20 09:51:06;;;;;;;1.55;0.80;;;36.90;30.10;;;31.99;41.88;95692.81;6121388;23;20088;-72
2023/09/20 09:53:34;;;;;;;1.38;0.70;;;37.50;28.60;;;32.26;41.97;95683.25;6074061;23;20018;-72
2023/09/20 09:56:03;;;;;;;1.48;0.80;;;38.00;28.40;;;32.57;39.69;95663.66;6123154;23;20021;-72
2023/09/20 09:58:29;;;;;;;1.97;0.77;;;38.60;27.80;;;32.91;42.64;95688.88;6074533;23;20010;-72
2023/09/20 10:00:55;;;;;;;1.63;0.90;;;39.50;27.90;;;33.33;41.67;95687.47;6123498;23;20355;-72
2023/09/20 10:03:34;;;;;;;1.65;0.90;;;40.10;25.90;;;33.77;36.60;95643.91;6097029;23;20013;-71
2023/09/20 10:06:09;;;;;;;3.83;1.15;;;40.90;24.90;;;34.22;36.08;95640.03;6097635;23;20037;-72
2023/09/20 10:08:40;;;;;;;1.23;0.82;;;41.40;24.30;;;34.65;35.84;95642.69;6123693;23;20014;-71
2023/09/20 10:11:08;;;;;;;6.00;1.40;;;42.00;24.00;;;34.99;38.54;95673.16;6097541;23;20026;-70
2023/09/20 10:13:37;;;;;;;1.33;0.80;;;42.50;23.80;;;35.35;35.41;95635.69;6073856;23;20444;-72
2023/09/20 10:16:10;;;;;;;1.95;0.80;;;42.90;23.10;;;35.64;34.83;95626.09;6074257;23;20061;-70
2023/09/20 10:18:52;;;;;;;1.42;0.80;;;43.00;23.00;;;36.01;33.62;95618.22;6075135;23;20464;-73
2023/09/20 10:21:22;;;;;;;3.10;0.85;;;43.30;23.40;;;36.21;37.05;95638.88;6121432;23;20018;-72
2023/09/20 10:23:47;;;;;;;1.17;0.70;;;43.20;22.90;;;36.59;35.54;95632.50;6097179;23;20018;-72
2023/09/20 10:26:15;;;;;;;3.67;0.82;;;43.50;22.80;;;37.06;34.67;95623.03;6121516;23;20020;-70
2023/09/20 10:28:42;;;;;;;2.65;0.85;;;43.80;22.80;;;37.47;34.36;95610.25;6121650;23;20059;-71
2023/09/20 10:31:15;;;;;;;1.83;0.70;;;44.00;22.30;;;37.81;32.81;95607.53;6097413;23;20020;-72
2023/09/20 10:33:45;;;;;;;2.15;0.95;;;44.00;22.30;;;38.18;32.71;95599.28;6098804;23;20391;-71
2023/09/20 10:36:22;;;;;;;7.60;6.65;;;44.30;22.10;;;38.65;29.54;95567.47;6122678;23;20333;-70
2023/09/20 10:38:48;;;;;;;2.15;0.82;;;44.40;22.20;;;38.89;31.18;95584.09;6121294;23;20022;-72
2023/09/20 10:41:17;;;;;;;1.30;0.65;;;44.00;21.50;;;39.12;28.78;95552.81;6073054;23;20142;-70
2023/09/20 10:43:46;;;;;;;2.13;0.80;;;44.10;21.50;;;39.44;29.65;95567.50;6122685;23;20010;-70
2023/09/20 10:46:17;;;;;;;3.50;0.70;;;44.30;21.80;;;39.66;29.49;95556.56;6074200;23;20092;-71
2023/09/20 10:48:51;;;;;;;1.38;0.90;;;44.40;21.20;;;39.89;26.44;95512.16;6076814;23;20076;-70
2023/09/20 10:51:48;;;;;;;3.03;1.92;;;44.70;20.50;;;40.37;25.73;95513.34;6098144;23;20014;-71
2023/09/20 10:54:29;;;;;;;2.73;0.80;;;44.90;20.80;;;40.80;25.95;95510.50;6124488;23;20017;-72
2023/09/20 10:57:02;;;;;;;2.20;0.77;;;44.70;21.10;;;41.04;27.71;95524.63;6123283;23;20024;-71
2023/09/20 10:59:30;;;;;;;2.85;0.70;;;44.90;21.10;;;41.35;26.79;95523.72;6100523;23;20018;-70